Time;durP1;ratioP1;P1;durP2;ratioP2;P2;SDS_P1;SDS_P2;PMS_P1;PMS_P2;Temp;Humidity;BMP_temperature;BMP_pressure;BME280_temperature;BME280_humidity;BME280_pressure;Samples;Min_cycle;Max_cycle;Signal;HPM_P1;HPM_P2
2022/09/10 00:02:12;;;;;;;0.10;0.10;;;19.80;99.90;;;;;;5104413;28;20043;-78
2022/09/10 00:04:38;;;;;;;0.10;0.10;;;17.40;99.90;;;;;;5095870;28;20028;-78
2022/09/10 00:07:04;;;;;;;0.03;0.03;;;19.70;99.90;;;;;;5086765;28;20143;-79
2022/09/10 00:09:31;;;;;;;0.10;0.10;;;20.10;99.90;;;;;;5089799;28;20540;-79
2022/09/10 00:12:00;;;;;;;0.10;0.10;;;;;;;;;;5116862;28;20107;-78
2022/09/10 00:14:27;;;;;;;0.00;0.00;;;19.90;99.90;;;;;;5116065;28;20058;-78
2022/09/10 00:16:54;;;;;;;0.00;0.00;;;19.60;99.90;;;;;;5116199;28;20649;-79
2022/09/10 00:19:21;;;;;;;0.00;0.00;;;19.30;99.90;;;;;;5109699;28;20098;-78
2022/09/10 00:22:12;;;;;;;0.10;0.10;;;19.30;99.90;;;;;;5124243;28;20300;-78
2022/09/10 00:24:37;;;;;;;0.05;0.05;;;19.30;99.90;;;;;;5073573;28;20028;-78
2022/09/10 00:27:03;;;;;;;0.00;0.00;;;19.10;99.90;;;;;;5052000;28;20033;-78
2022/09/10 00:29:30;;;;;;;0.00;0.00;;;19.00;99.90;;;;;;5057344;28;20481;-78
2022/09/10 00:31:56;;;;;;;0.10;0.10;;;18.90;99.90;;;;;;5068657;28;20025;-78
2022/09/10 00:34:25;;;;;;;0.10;0.10;;;18.60;99.90;;;;;;5067681;28;20102;-79
2022/09/10 00:36:52;;;;;;;0.25;0.25;;;19.00;99.90;;;;;;5064085;28;20041;-78
2022/09/10 00:39:25;;;;;;;0.00;0.00;;;19.00;99.90;;;;;;5066457;28;20051;-79
2022/09/10 00:41:55;;;;;;;0.10;0.10;;;19.20;99.90;;;;;;5067389;28;20463;-78
2022/09/10 00:44:45;;;;;;;0.10;0.10;;;19.30;99.90;;;;;;5071158;28;20054;-79
2022/09/10 00:47:22;;;;;;;0.10;0.10;;;17.00;99.90;;;;;;5065394;28;20056;-78
2022/09/10 00:50:05;;;;;;;0.10;0.10;;;19.30;99.90;;;;;;5043479;28;20491;-78
2022/09/10 00:52:33;;;;;;;0.00;0.00;;;19.50;99.90;;;;;;5067028;28;20024;-78
2022/09/10 00:55:01;;;;;;;0.10;0.10;;;20.40;99.90;;;;;;5061100;28;20104;-78
2022/09/10 00:57:28;;;;;;;0.10;0.10;;;20.20;99.90;;;;;;5049130;28;20032;-78
2022/09/10 01:00:00;;;;;;;0.10;0.10;;;20.00;99.90;;;;;;5060843;28;20210;-78
2022/09/10 01:02:29;;;;;;;0.20;0.20;;;20.10;99.90;;;;;;5063533;28;20020;-78
2022/09/10 01:04:57;;;;;;;0.10;0.10;;;19.90;99.90;;;;;;5064391;28;20036;-78
2022/09/10 01:07:28;;;;;;;3.67;3.40;;;20.00;99.90;;;;;;5066929;28;20036;-78
2022/09/10 01:10:12;;;;;;;0.08;0.08;;;19.70;99.90;;;;;;5067705;28;20226;-78
2022/09/10 01:13:01;;;;;;;0.10;0.10;;;17.50;99.90;;;;;;5069238;28;20105;-78
2022/09/10 01:16:04;;;;;;;0.10;0.10;;;20.10;99.90;;;;;;5076325;28;20032;-78
2022/09/10 01:19:26;;;;;;;0.00;0.00;;;20.30;99.90;;;;;;5105067;28;20184;-78
2022/09/10 01:22:41;;;;;;;0.10;0.10;;;20.00;99.90;;;;;;5010472;28;20078;-78
2022/09/10 01:25:51;;;;;;;0.10;0.10;;;20.30;99.90;;;;;;4955066;29;20036;-77
2022/09/10 01:29:09;;;;;;;0.00;0.00;;;20.40;99.90;;;;;;4918870;29;20036;-78
2022/09/10 01:31:56;;;;;;;0.10;0.10;;;20.40;99.90;;;;;;4919032;29;20045;-78
2022/09/10 01:34:46;;;;;;;0.10;0.10;;;20.60;99.90;;;;;;4862560;29;20041;-78
2022/09/10 01:37:21;;;;;;;0.10;0.10;;;20.80;99.90;;;;;;4892753;29;20081;-82
2022/09/10 01:40:06;;;;;;;0.10;0.10;;;20.70;99.90;;;;;;4899612;29;20044;-78
2022/09/10 01:42:39;;;;;;;0.10;0.10;;;20.80;99.90;;;;;;4867705;29;20128;-78
2022/09/10 01:45:06;;;;;;;0.00;0.00;;;20.90;99.90;;;;;;4894822;29;20040;-78
2022/09/10 01:47:50;;;;;;;0.00;0.00;;;20.90;99.90;;;;;;4879077;29;20049;-78
2022/09/10 01:50:56;;;;;;;0.00;0.00;;;20.60;99.90;;;;;;4893574;29;20032;-78
2022/09/10 01:53:58;;;;;;;0.10;0.10;;;17.60;99.90;;;;;;4869438;29;20100;-79
2022/09/10 01:56:57;;;;;;;0.10;0.10;;;20.40;99.90;;;;;;4862004;29;20548;-78
2022/09/10 01:59:40;;;;;;;0.10;0.10;;;20.40;99.90;;;;;;4862613;29;20030;-79
2022/09/10 02:02:33;;;;;;;0.00;0.00;;;20.20;99.90;;;;;;4870404;29;20032;-77
2022/09/10 02:05:29;;;;;;;0.08;0.08;;;19.60;99.90;;;;;;4840998;29;20057;-78
2022/09/10 02:08:08;;;;;;;0.00;0.00;;;18.70;99.90;;;;;;4832222;29;20093;-79
2022/09/10 02:11:16;;;;;;;0.10;0.10;;;19.40;99.90;;;;;;4835284;29;20058;-78
2022/09/10 02:14:13;;;;;;;0.10;0.10;;;17.60;99.90;;;;;;4839030;29;20067;-78
2022/09/10 02:16:52;;;;;;;0.10;0.10;;;19.20;99.90;;;;;;4826084;29;20069;-77
2022/09/10 02:19:37;;;;;;;0.10;0.10;;;19.00;99.90;;;;;;4840727;29;20082;-79
2022/09/10 02:22:27;;;;;;;0.32;0.32;;;18.90;99.90;;;;;;4839897;29;20069;-79
2022/09/10 02:25:01;;;;;;;0.10;0.10;;;18.80;99.90;;;;;;4814811;29;20045;-78
2022/09/10 02:27:34;;;;;;;0.10;0.10;;;18.80;99.90;;;;;;4803159;29;20066;-78
2022/09/10 02:30:10;;;;;;;0.00;0.00;;;18.80;99.90;;;;;;4816746;29;20139;-78
2022/09/10 02:32:38;;;;;;;0.00;0.00;;;19.90;99.90;;;;;;4906364;29;20031;-78
2022/09/10 02:35:08;;;;;;;0.10;0.10;;;18.50;99.90;;;;;;4947202;29;20123;-78
2022/09/10 02:37:38;;;;;;;0.10;0.10;;;18.70;99.90;;;;;;4947062;29;20063;-79
2022/09/10 02:40:18;;;;;;;0.08;0.08;;;18.80;99.90;;;;;;4958693;29;20035;-77
2022/09/10 02:42:50;;;;;;;0.10;0.10;;;18.90;99.90;;;;;;5004341;28;20046;-78
2022/09/10 02:45:17;;;;;;;0.10;0.10;;;;;;;;;;5048778;28;20038;-78
2022/09/10 02:47:47;;;;;;;0.10;0.10;;;19.70;99.90;;;;;;5029674;28;20032;-79
2022/09/10 02:50:14;;;;;;;0.00;0.00;;;19.40;99.90;;;;;;5018357;28;20026;-78
2022/09/10 02:52:40;;;;;;;0.10;0.10;;;20.30;99.90;;;;;;5019209;28;20120;-77
2022/09/10 02:55:07;;;;;;;0.10;0.10;;;20.40;99.90;;;;;;5023376;28;20113;-78
2022/09/10 02:57:33;;;;;;;0.00;0.00;;;20.50;99.90;;;;;;5005075;28;20370;-78
2022/09/10 02:59:58;;;;;;;0.00;0.00;;;20.50;99.90;;;;;;5023409;28;20026;-78
2022/09/10 03:02:26;;;;;;;0.10;0.10;;;20.60;99.90;;;;;;5007482;28;20574;-78
2022/09/10 03:04:52;;;;;;;0.10;0.10;;;20.70;99.90;;;;;;5021579;28;20025;-78
2022/09/10 03:07:19;;;;;;;0.10;0.10;;;20.70;99.90;;;;;;5023971;28;20132;-78
2022/09/10 03:09:46;;;;;;;0.10;0.10;;;20.70;99.90;;;;;;5086776;28;20059;-78
2022/09/10 03:12:16;;;;;;;0.00;0.00;;;20.80;99.90;;;;;;5112862;28;20047;-78
2022/09/10 03:14:52;;;;;;;0.10;0.10;;;24.40;99.90;;;;;;5111306;28;20300;-77
2022/09/10 03:17:17;;;;;;;0.08;0.08;;;20.80;99.90;;;;;;5089205;28;20312;-79
2022/09/10 03:19:43;;;;;;;0.10;0.10;;;20.80;99.90;;;;;;5101212;28;20235;-80
2022/09/10 03:22:10;;;;;;;0.10;0.10;;;20.80;99.90;;;;;;5101665;28;20513;-79
2022/09/10 03:24:35;;;;;;;0.10;0.10;;;20.80;99.90;;;;;;5081401;28;20114;-79
2022/09/10 03:27:15;;;;;;;0.10;0.10;;;20.80;99.90;;;;;;5106266;28;20047;-82
2022/09/10 03:29:43;;;;;;;0.10;0.10;;;20.90;99.90;;;;;;5091095;28;20119;-82
2022/09/10 03:32:19;;;;;;;0.10;0.10;;;20.80;99.90;;;;;;5122962;28;20035;-80
2022/09/10 03:34:45;;;;;;;0.20;0.20;;;20.90;99.90;;;;;;5097081;28;20020;-81
2022/09/10 03:37:25;;;;;;;0.03;0.03;;;18.70;99.90;;;;;;5115040;28;20039;-86
2022/09/10 03:39:58;;;;;;;0.10;0.10;;;23.40;99.90;;;;;;5117622;28;20028;-81
2022/09/10 03:42:29;;;;;;;0.10;0.10;;;20.80;99.90;;;;;;5117040;28;20080;-79
2022/09/10 03:45:06;;;;;;;0.00;0.00;;;20.70;99.90;;;;;;5105555;28;20339;-78
2022/09/10 03:47:33;;;;;;;0.00;0.00;;;20.40;99.90;;;;;;5109487;28;20032;-79
2022/09/10 03:49:58;;;;;;;0.10;0.10;;;19.90;99.90;;;;;;5086416;28;20031;-78
2022/09/10 03:52:25;;;;;;;0.10;0.10;;;19.50;99.90;;;;;;5082272;28;20050;-79
2022/09/10 03:54:55;;;;;;;0.00;0.00;;;18.90;99.90;;;;;;5109505;28;20028;-80
2022/09/10 03:57:23;;;;;;;0.10;0.10;;;18.30;99.90;;;;;;5119036;28;20110;-78
2022/09/10 03:59:50;;;;;;;0.10;0.10;;;18.80;99.90;;;;;;5102952;28;20028;-79
2022/09/10 04:02:16;;;;;;;0.10;0.10;;;;;;;;;;5116784;28;20027;-78
2022/09/10 04:04:42;;;;;;;0.00;0.00;;;19.40;99.90;;;;;;5115623;28;20049;-77
2022/09/10 04:07:13;;;;;;;0.03;0.03;;;19.60;99.90;;;;;;5087957;28;20029;-79
2022/09/10 04:09:46;;;;;;;0.10;0.10;;;19.50;99.90;;;;;;5110375;28;20027;-78
2022/09/10 04:12:25;;;;;;;0.08;0.08;;;19.70;99.90;;;;;;5122564;28;20020;-78
2022/09/10 04:14:52;;;;;;;0.08;0.08;;;;;;;;;;5116678;28;20508;-79
2022/09/10 04:17:23;;;;;;;0.10;0.10;;;19.90;99.90;;;;;;5127058;28;20039;-89
2022/09/10 04:19:50;;;;;;;0.10;0.10;;;20.00;99.90;;;;;;5129333;28;20026;-79
2022/09/10 04:22:15;;;;;;;0.10;0.10;;;20.20;99.90;;;;;;5096842;28;20036;-78
2022/09/10 04:24:43;;;;;;;0.08;0.08;;;20.30;99.90;;;;;;5120232;28;20092;-79
2022/09/10 04:27:16;;;;;;;0.10;0.10;;;20.40;99.90;;;;;;5128973;28;20509;-83
2022/09/10 04:29:43;;;;;;;0.00;0.00;;;18.00;99.90;;;;;;5126237;28;20032;-79
2022/09/10 04:32:10;;;;;;;0.10;0.10;;;20.50;99.90;;;;;;5118438;28;20059;-79
2022/09/10 04:34:43;;;;;;;0.40;0.40;;;20.20;99.90;;;;;;5100430;28;20028;-86
2022/09/10 04:37:09;;;;;;;0.00;0.00;;;20.30;99.90;;;;;;5103139;28;20338;-78
2022/09/10 04:39:35;;;;;;;0.10;0.10;;;20.40;99.90;;;;;;5099084;28;20257;-79
2022/09/10 04:42:09;;;;;;;0.63;0.63;;;20.10;99.90;;;;;;5121595;28;20024;-79
2022/09/10 04:44:37;;;;;;;0.10;0.10;;;20.20;99.90;;;;;;5121341;28;20019;-79
2022/09/10 04:47:05;;;;;;;0.17;0.17;;;20.30;99.90;;;;;;5120471;28;20027;-83
2022/09/10 04:49:31;;;;;;;0.10;0.10;;;20.30;99.90;;;;;;5086213;28;20404;-79
2022/09/10 04:51:58;;;;;;;0.00;0.00;;;17.90;99.90;;;;;;5107683;28;20023;-79
2022/09/10 04:54:24;;;;;;;0.10;0.10;;;20.50;99.90;;;;;;5085237;28;20273;-78
2022/09/10 04:56:51;;;;;;;0.10;0.10;;;20.50;99.90;;;;;;5104138;28;20286;-79
2022/09/10 04:59:17;;;;;;;0.05;0.05;;;20.40;99.90;;;;;;5103465;28;20023;-78
2022/09/10 05:01:42;;;;;;;0.05;0.05;;;20.40;99.90;;;;;;5090971;28;20024;-79
2022/09/10 05:04:36;;;;;;;0.57;0.57;;;21.00;99.90;;;;;;5110529;28;20077;-79
2022/09/10 05:07:03;;;;;;;0.00;0.00;;;23.60;99.90;;;;;;5119407;28;20031;-80
2022/09/10 05:09:32;;;;;;;0.00;0.00;;;17.30;99.90;;;;;;5101538;28;20557;-78
2022/09/10 05:11:59;;;;;;;0.28;0.28;;;20.30;99.90;;;;;;5108573;28;20039;-78
2022/09/10 05:14:49;;;;;;;8.88;4.75;;;20.10;99.90;;;;;;5107503;28;20008;-79
2022/09/10 05:17:39;;;;;;;0.52;0.40;;;20.00;99.90;;;;;;5115697;28;20061;-78
2022/09/10 05:20:09;;;;;;;0.00;0.00;;;19.60;99.90;;;;;;5101344;28;20570;-78
2022/09/10 05:22:36;;;;;;;0.10;0.10;;;19.70;99.90;;;;;;5094804;28;20051;-79
2022/09/10 05:25:19;;;;;;;0.15;0.15;;;19.80;99.90;;;;;;5106114;28;20031;-78
2022/09/10 05:27:48;;;;;;;0.10;0.10;;;20.00;99.90;;;;;;5122826;28;20028;-78
2022/09/10 05:30:17;;;;;;;0.10;0.10;;;18.20;99.90;;;;;;5108451;28;20016;-79
2022/09/10 05:32:43;;;;;;;0.10;0.10;;;20.40;99.90;;;;;;5125577;28;20028;-79
2022/09/10 05:35:16;;;;;;;0.10;0.10;;;20.40;99.90;;;;;;5110432;28;20043;-78
2022/09/10 05:37:44;;;;;;;0.20;0.20;;;21.40;99.90;;;;;;5088486;28;20456;-78
2022/09/10 05:40:17;;;;;;;0.10;0.10;;;20.70;99.90;;;;;;5102468;28;20046;-79
2022/09/10 05:42:45;;;;;;;0.00;0.00;;;20.70;99.90;;;;;;5120684;28;20031;-78
2022/09/10 05:45:11;;;;;;;0.30;0.30;;;20.70;99.90;;;;;;5122319;28;20027;-79
2022/09/10 05:47:51;;;;;;;0.10;0.10;;;20.80;99.90;;;;;;5099284;28;20106;-80
2022/09/10 05:50:18;;;;;;;1.45;1.38;;;20.90;99.90;;;;;;5117194;28;20019;-79
2022/09/10 05:52:46;;;;;;;0.10;0.10;;;21.00;99.90;;;;;;5108270;28;20012;-77
2022/09/10 05:55:12;;;;;;;0.00;0.00;;;21.10;99.90;;;;;;5109971;28;20024;-79
2022/09/10 05:57:39;;;;;;;0.10;0.10;;;22.60;99.90;;;;;;5092276;28;20047;-79
2022/09/10 06:00:09;;;;;;;0.10;0.10;;;21.20;99.90;;;;;;5103155;28;20011;-78
2022/09/10 06:02:40;;;;;;;0.10;0.10;;;20.80;99.90;;;;;;5117751;28;20035;-80
2022/09/10 06:05:07;;;;;;;0.10;0.10;;;20.70;99.90;;;;;;5105551;28;20023;-79
2022/09/10 06:07:42;;;;;;;0.15;0.15;;;20.60;99.90;;;;;;5122552;28;20024;-80
2022/09/10 06:10:08;;;;;;;0.10;0.10;;;23.50;99.90;;;;;;5087354;28;20074;-82
2022/09/10 06:12:34;;;;;;;0.00;0.00;;;20.40;99.90;;;;;;5080979;28;20031;-79
2022/09/10 06:15:04;;;;;;;0.10;0.10;;;20.20;99.90;;;;;;5079432;28;20016;-80
2022/09/10 06:17:30;;;;;;;0.20;0.20;;;;;;;;;;5082189;28;20051;-80
2022/09/10 06:20:00;;;;;;;0.10;0.10;;;20.30;99.90;;;;;;5090258;28;20012;-80
2022/09/10 06:22:26;;;;;;;0.08;0.08;;;;;;;;;;5088339;28;20081;-79
2022/09/10 06:24:52;;;;;;;0.10;0.10;;;20.40;99.90;;;;;;5084962;28;20028;-80
2022/09/10 06:27:18;;;;;;;0.10;0.10;;;20.50;99.90;;;;;;5082289;28;20568;-77
2022/09/10 06:29:44;;;;;;;0.10;0.10;;;20.60;99.90;;;;;;5084692;28;20467;-82
2022/09/10 06:32:10;;;;;;;0.00;0.00;;;20.80;99.90;;;;;;5080168;28;20283;-79
2022/09/10 06:34:35;;;;;;;0.10;0.10;;;20.90;99.90;;;;;;5080818;28;20543;-78
2022/09/10 06:37:03;;;;;;;0.10;0.10;;;21.10;99.90;;;;;;5078553;28;20048;-79
2022/09/10 06:39:28;;;;;;;0.10;0.10;;;21.20;99.90;;;;;;5077971;28;20728;-78
2022/09/10 06:41:54;;;;;;;0.20;0.20;;;21.40;99.90;;;;;;5081009;28;20025;-79
2022/09/10 06:44:29;;;;;;;0.10;0.10;;;21.80;99.90;;;;;;5086171;28;20051;-84
2022/09/10 06:46:55;;;;;;;0.10;0.10;;;;;;;;;;5082776;28;20020;-79
2022/09/10 06:49:22;;;;;;;0.05;0.05;;;21.30;99.90;;;;;;5079540;28;20023;-89
2022/09/10 06:51:49;;;;;;;6.88;6.43;;;;;;;;;;5080185;28;20028;-82
2022/09/10 06:54:15;;;;;;;0.10;0.10;;;;;;;;;;5079407;28;20016;-79
2022/09/10 06:56:41;;;;;;;0.00;0.00;;;21.00;99.90;;;;;;5078872;28;20055;-83
2022/09/10 06:59:08;;;;;;;0.10;0.10;;;21.00;99.90;;;;;;5078977;28;20012;-81
2022/09/10 07:01:34;;;;;;;0.10;0.10;;;21.20;99.90;;;;;;5079241;28;20055;-76
2022/09/10 07:04:01;;;;;;;0.10;0.10;;;21.20;99.90;;;;;;5079608;28;20086;-77
2022/09/10 07:06:32;;;;;;;0.10;0.10;;;22.20;99.90;;;;;;5079382;28;20051;-78
2022/09/10 07:08:58;;;;;;;2.20;1.17;;;21.00;99.90;;;;;;5079133;28;20012;-77
2022/09/10 07:11:26;;;;;;;0.00;0.00;;;20.90;99.90;;;;;;5076836;28;20036;-78
2022/09/10 07:13:53;;;;;;;0.10;0.10;;;20.70;99.90;;;;;;5077464;28;20024;-86
2022/09/10 07:16:20;;;;;;;0.10;0.10;;;20.80;99.90;;;;;;5078445;28;20263;-76
2022/09/10 07:18:55;;;;;;;0.10;0.10;;;20.80;99.90;;;;;;5077842;28;20028;-77
2022/09/10 07:21:23;;;;;;;0.00;0.00;;;20.90;99.90;;;;;;5078844;28;20717;-79
2022/09/10 07:23:53;;;;;;;0.00;0.00;;;20.90;99.90;;;;;;5077305;28;20031;-79
2022/09/10 07:26:19;;;;;;;0.47;0.47;;;21.40;99.90;;;;;;5077763;28;20722;-81
2022/09/10 07:28:45;;;;;;;0.15;0.15;;;20.00;99.90;;;;;;5079314;28;20099;-81
2022/09/10 07:31:17;;;;;;;0.10;0.10;;;20.90;99.90;;;;;;5082343;28;20698;-78
2022/09/10 07:33:44;;;;;;;0.05;0.05;;;;;;;;;;5079922;28;20024;-79
2022/09/10 07:36:23;;;;;;;0.20;0.20;;;21.00;99.90;;;;;;5083094;28;20541;-79
2022/09/10 07:38:56;;;;;;;0.17;0.17;;;21.20;99.90;;;;;;5082350;28;20026;-78
2022/09/10 07:41:23;;;;;;;0.10;0.10;;;21.20;99.90;;;;;;5082672;28;20116;-76
2022/09/10 07:43:53;;;;;;;0.20;0.20;;;21.30;99.90;;;;;;5082771;28;20024;-77
2022/09/10 07:46:20;;;;;;;0.10;0.10;;;21.30;99.90;;;;;;5081597;28;20119;-76
2022/09/10 07:48:55;;;;;;;0.00;0.00;;;21.20;99.90;;;;;;5083685;28;20020;-83
2022/09/10 07:51:25;;;;;;;0.90;0.90;;;21.20;99.90;;;;;;5084150;28;20096;-77
2022/09/10 07:54:00;;;;;;;4.47;3.20;;;21.10;99.90;;;;;;5086078;28;20028;-82
2022/09/10 07:56:44;;;;;;;0.00;0.00;;;21.10;99.90;;;;;;5090582;28;20101;-82
2022/09/10 07:59:10;;;;;;;0.10;0.10;;;;;;;;;;5088213;28;20052;-88
2022/09/10 08:01:46;;;;;;;0.10;0.10;;;21.40;99.90;;;;;;5093028;28;20028;-80
2022/09/10 08:04:15;;;;;;;0.00;0.00;;;21.50;99.90;;;;;;5086769;28;20059;-77
2022/09/10 08:06:40;;;;;;;0.10;0.10;;;21.30;99.90;;;;;;5091158;28;20024;-80
2022/09/10 08:09:07;;;;;;;0.05;0.05;;;;;;;;;;5083279;28;20092;-78
2022/09/10 08:11:41;;;;;;;0.03;0.03;;;21.60;99.90;;;;;;5085497;28;20151;-78
2022/09/10 08:14:08;;;;;;;1.13;1.13;;;;;;;;;;5084944;28;20684;-78
2022/09/10 08:16:35;;;;;;;1.48;1.38;;;21.90;99.90;;;;;;5084579;28;20036;-77
2022/09/10 08:19:01;;;;;;;0.10;0.10;;;22.00;99.90;;;;;;5084213;28;20712;-88
2022/09/10 08:21:30;;;;;;;0.10;0.10;;;22.20;99.90;;;;;;5083801;28;20028;-78
2022/09/10 08:23:56;;;;;;;0.00;0.00;;;22.20;99.90;;;;;;5083058;28;20016;-78
2022/09/10 08:26:23;;;;;;;0.40;0.40;;;22.30;99.90;;;;;;5083547;28;20035;-77
2022/09/10 08:29:01;;;;;;;0.63;0.63;;;22.40;99.90;;;;;;5080950;28;20016;-80
2022/09/10 08:31:29;;;;;;;0.08;0.08;;;22.40;99.90;;;;;;5082471;28;20162;-89
2022/09/10 08:33:55;;;;;;;0.00;0.00;;;22.60;99.90;;;;;;5085951;28;20095;-76
2022/09/10 08:36:22;;;;;;;0.00;0.00;;;22.70;99.90;;;;;;5084852;28;20194;-76
2022/09/10 08:39:01;;;;;;;0.50;0.50;;;22.90;99.90;;;;;;5084719;28;20024;-76
2022/09/10 08:41:47;;;;;;;0.10;0.10;;;23.20;99.90;;;;;;5082832;28;20028;-76
2022/09/10 08:44:34;;;;;;;0.00;0.00;;;23.20;99.90;;;;;;5083880;28;20228;-77
2022/09/10 08:47:19;;;;;;;0.08;0.08;;;23.70;99.90;;;;;;5082192;28;20586;-76
2022/09/10 08:49:53;;;;;;;0.00;0.00;;;23.10;99.90;;;;;;5082548;28;20023;-78
2022/09/10 08:52:38;;;;;;;0.63;0.52;;;23.40;99.90;;;;;;5080600;28;20020;-76
2022/09/10 08:55:15;;;;;;;0.00;0.00;;;23.40;99.90;;;;;;5086561;28;20012;-76
2022/09/10 08:57:49;;;;;;;0.00;0.00;;;23.80;99.90;;;;;;5080475;28;20104;-77
2022/09/10 09:00:22;;;;;;;0.10;0.10;;;24.00;99.90;;;;;;5083070;28;20020;-76
2022/09/10 09:03:01;;;;;;;0.10;0.10;;;24.10;99.90;;;;;;5082178;28;20099;-78
2022/09/10 09:05:33;;;;;;;0.10;0.10;;;24.20;99.90;;;;;;5081103;28;20254;-74
2022/09/10 09:07:59;;;;;;;0.00;0.00;;;24.40;99.90;;;;;;5078162;28;20077;-74
2022/09/10 09:10:59;;;;;;;0.00;0.00;;;24.60;99.90;;;;;;5094815;28;20043;-90
2022/09/10 09:13:31;;;;;;;0.00;0.00;;;23.60;99.90;;;;;;5103238;28;20047;-77
2022/09/10 09:16:05;;;;;;;0.00;0.00;;;25.00;99.90;;;;;;5105498;28;20036;-83
2022/09/10 09:18:59;;;;;;;0.20;0.20;;;25.00;98.70;;;;;;5085430;28;20027;-81
2022/09/10 09:21:47;;;;;;;0.00;0.00;;;25.20;98.40;;;;;;5105841;28;20828;-82
2022/09/10 09:24:35;;;;;;;0.00;0.00;;;24.80;98.20;;;;;;5102607;28;20152;-77
2022/09/10 09:27:08;;;;;;;0.00;0.00;;;25.40;97.90;;;;;;5083082;28;20084;-88
2022/09/10 09:29:51;;;;;;;0.00;0.00;;;25.40;97.20;;;;;;5101896;28;20019;-77
2022/09/10 09:32:19;;;;;;;0.00;0.00;;;25.30;97.10;;;;;;5084660;28;20460;-75
2022/09/10 09:34:51;;;;;;;0.00;0.00;;;25.50;97.20;;;;;;5083910;28;20661;-78
2022/09/10 09:37:24;;;;;;;0.00;0.00;;;25.60;97.50;;;;;;5083367;28;20653;-78
2022/09/10 09:40:15;;;;;;;0.60;0.57;;;25.60;97.20;;;;;;5084561;28;20138;-80
2022/09/10 09:43:12;;;;;;;0.00;0.00;;;25.80;96.80;;;;;;5102633;28;20016;-78
2022/09/10 09:45:42;;;;;;;0.00;0.00;;;25.90;96.90;;;;;;5079111;28;20122;-78
2022/09/10 09:48:15;;;;;;;0.50;0.50;;;25.90;95.80;;;;;;5082749;28;20024;-77
2022/09/10 09:50:42;;;;;;;;;;;22.50;94.90;;;;;;5105525;28;20015;-77
2022/09/10 09:53:24;;;;;;;0.00;0.00;;;26.30;96.10;;;;;;5091609;28;20569;-76
2022/09/10 09:55:59;;;;;;;0.00;0.00;;;26.30;94.40;;;;;;5091449;28;20012;-75
2022/09/10 09:58:27;;;;;;;0.00;0.00;;;26.60;94.20;;;;;;5085984;28;20027;-76
2022/09/10 10:01:04;;;;;;;0.00;0.00;;;26.30;94.90;;;;;;5087798;28;20030;-79
2022/09/10 10:03:32;;;;;;;0.00;0.00;;;26.50;93.10;;;;;;5085084;28;20030;-75
2022/09/10 10:06:07;;;;;;;0.00;0.00;;;26.60;93.10;;;;;;5084874;28;20023;-77
2022/09/10 10:08:43;;;;;;;0.00;0.00;;;26.50;91.50;;;;;;5086376;28;20032;-78
2022/09/10 10:11:12;;;;;;;0.10;0.10;;;26.70;91.80;;;;;;5105944;28;20545;-89
2022/09/10 10:13:45;;;;;;;0.00;0.00;;;26.60;92.40;;;;;;5105606;28;20075;-78
2022/09/10 10:16:22;;;;;;;0.00;0.00;;;26.60;91.70;;;;;;5106006;28;20793;-79
2022/09/10 10:18:49;;;;;;;0.30;0.30;;;26.70;91.60;;;;;;5086175;28;20438;-80
2022/09/10 10:21:29;;;;;;;1.77;0.93;;;26.70;91.20;;;;;;5090487;28;20026;-77
2022/09/10 10:23:57;;;;;;;0.00;0.00;;;26.80;88.90;;;;;;5087256;28;20019;-78
2022/09/10 10:26:34;;;;;;;13.52;12.18;;;26.90;84.40;;;;;;5102755;28;20383;-76
2022/09/10 10:29:05;;;;;;;0.00;0.00;;;27.00;83.70;;;;;;5086626;28;20031;-76
2022/09/10 10:31:42;;;;;;;0.00;0.00;;;27.20;83.50;;;;;;5102905;28;20680;-78
2022/09/10 10:34:08;;;;;;;0.00;0.00;;;27.20;81.80;;;;;;5084593;28;20026;-78
2022/09/10 10:36:58;;;;;;;0.05;0.05;;;27.50;80.10;;;;;;5084841;28;20292;-78
2022/09/10 10:39:41;;;;;;;0.00;0.00;;;27.60;79.90;;;;;;5089458;28;20046;-79
2022/09/10 10:42:29;;;;;;;0.00;0.00;;;28.00;77.40;;;;;;5087382;28;20023;-78
2022/09/10 10:45:10;;;;;;;0.00;0.00;;;28.10;78.20;;;;;;5089584;28;20539;-77
2022/09/10 10:48:22;;;;;;;1.52;1.45;;;28.20;76.10;;;;;;5103610;28;20077;-80
2022/09/10 10:50:57;;;;;;;0.00;0.00;;;28.70;76.20;;;;;;5019649;28;20030;-79
2022/09/10 10:53:26;;;;;;;0.20;0.20;;;29.20;73.50;;;;;;5001979;28;20026;-78
2022/09/10 10:56:14;;;;;;;0.00;0.00;;;29.20;73.40;;;;;;5018516;28;20069;-80
2022/09/10 10:59:04;;;;;;;0.10;0.10;;;30.60;73.80;;;;;;5008071;28;20068;-83
2022/09/10 11:01:37;;;;;;;0.00;0.00;;;28.50;72.00;;;;;;5018724;28;20113;-77
2022/09/10 11:04:18;;;;;;;0.00;0.00;;;28.90;70.30;;;;;;5003830;28;20025;-79
2022/09/10 11:06:48;;;;;;;0.00;0.00;;;28.20;70.20;;;;;;5008396;28;20021;-78
2022/09/10 11:09:47;;;;;;;0.00;0.00;;;27.90;64.70;;;;;;5004125;28;20044;-79
2022/09/10 11:12:26;;;;;;;0.00;0.00;;;27.70;65.20;;;;;;4942309;29;20130;-78
2022/09/10 11:14:52;;;;;;;0.00;0.00;;;;;;;;;;4942356;29;20032;-77
2022/09/10 11:17:26;;;;;;;0.00;0.00;;;27.70;65.10;;;;;;4942367;29;20043;-78
2022/09/10 11:19:58;;;;;;;0.10;0.10;;;28.20;64.40;;;;;;4926323;29;20821;-78
2022/09/10 11:22:34;;;;;;;0.00;0.00;;;28.30;73.20;;;;;;4944261;28;20521;-84
2022/09/10 11:25:25;;;;;;;0.00;0.00;;;28.70;75.00;;;;;;4944019;29;20019;-79
2022/09/10 11:28:13;;;;;;;0.00;0.00;;;29.30;74.60;;;;;;4966767;28;20518;-79
2022/09/10 11:30:47;;;;;;;0.00;0.00;;;28.70;72.40;;;;;;5022168;28;20049;-81
2022/09/10 11:33:38;;;;;;;0.30;0.30;;;29.00;76.10;;;;;;5008534;28;20065;-83
2022/09/10 11:36:35;;;;;;;0.00;0.00;;;27.40;82.30;;;;;;5026616;28;20045;-77
2022/09/10 11:39:27;;;;;;;0.00;0.00;;;25.50;89.90;;;;;;5024036;28;20026;-82
2022/09/10 11:41:57;;;;;;;0.00;0.00;;;25.40;90.70;;;;;;5023046;28;20120;-78
2022/09/10 11:44:46;;;;;;;0.00;0.00;;;24.70;92.30;;;;;;5022095;28;20583;-79
2022/09/10 11:47:23;;;;;;;0.10;0.10;;;23.90;91.00;;;;;;5023499;28;20033;-80
2022/09/10 11:49:57;;;;;;;0.10;0.10;;;23.70;92.30;;;;;;5086334;28;20035;-81
2022/09/10 11:52:26;;;;;;;0.38;0.30;;;23.50;93.40;;;;;;5102506;28;20031;-79
2022/09/10 11:54:53;;;;;;;0.05;0.05;;;23.00;97.00;;;;;;5105066;28;20593;-88
2022/09/10 11:57:48;;;;;;;0.10;0.10;;;22.10;99.90;;;;;;5106610;28;20030;-92
2022/09/10 12:00:18;;;;;;;0.00;0.00;;;21.60;99.90;;;;;;5128495;28;20041;-82
2022/09/10 12:03:16;;;;;;;0.00;0.00;;;21.50;99.90;;;;;;5134402;28;20061;-92
2022/09/10 12:06:29;;;;;;;0.00;0.00;;;21.40;99.90;;;;;;5121414;28;20024;-78
2022/09/10 12:09:26;;;;;;;0.00;0.00;;;21.30;99.90;;;;;;5029609;28;20021;-82
2022/09/10 12:12:15;;;;;;;0.00;0.00;;;24.20;99.90;;;;;;5027470;28;20045;-87
2022/09/10 12:14:44;;;;;;;0.00;0.00;;;18.50;99.90;;;;;;5034049;28;20030;-85
2022/09/10 12:17:19;;;;;;;0.00;0.00;;;23.20;99.90;;;;;;5033931;28;20100;-78
2022/09/10 12:20:09;;;;;;;0.10;0.10;;;21.50;99.90;;;;;;5031285;28;20115;-83
2022/09/10 12:22:40;;;;;;;0.10;0.10;;;21.60;99.90;;;;;;5027103;28;20037;-77
2022/09/10 12:25:43;;;;;;;0.05;0.05;;;21.70;99.90;;;;;;5034566;28;20141;-78
2022/09/10 12:28:47;;;;;;;0.10;0.10;;;21.70;99.90;;;;;;5029416;28;20029;-78
2022/09/10 12:31:24;;;;;;;0.10;0.10;;;21.70;99.90;;;;;;5050766;28;20034;-77
2022/09/10 12:33:53;;;;;;;0.10;0.10;;;21.70;99.90;;;;;;5034233;28;20057;-86
2022/09/10 12:36:24;;;;;;;0.10;0.10;;;21.60;99.90;;;;;;5027715;28;20037;-81
2022/09/10 12:39:33;;;;;;;0.08;0.08;;;21.70;99.90;;;;;;5031328;28;20053;-90
2022/09/10 12:43:04;;;;;;;0.10;0.10;;;21.80;99.90;;;;;;5056669;28;20062;-79
2022/09/10 12:46:24;;;;;;;0.00;0.00;;;21.90;99.90;;;;;;5067234;28;20053;-82
2022/09/10 12:48:51;;;;;;;0.10;0.10;;;;;;;;;;4978233;28;20099;-80
2022/09/10 12:51:45;;;;;;;0.10;0.10;;;22.20;99.90;;;;;;4990693;28;20039;-78
2022/09/10 12:54:29;;;;;;;0.00;0.00;;;22.40;99.90;;;;;;4978569;28;20592;-93
2022/09/10 12:57:21;;;;;;;0.10;0.10;;;22.40;99.90;;;;;;4984619;28;20031;-78
2022/09/10 12:59:52;;;;;;;0.10;0.10;;;22.20;99.90;;;;;;4986368;28;20030;-82
2022/09/10 13:02:46;;;;;;;0.00;0.00;;;22.60;99.90;;;;;;4984914;28;20031;-78
2022/09/10 13:05:59;;;;;;;0.00;0.00;;;22.50;99.90;;;;;;4955959;28;20633;-78
2022/09/10 13:08:37;;;;;;;0.10;0.10;;;22.20;99.90;;;;;;4960354;28;20035;-77
2022/09/10 13:11:19;;;;;;;0.10;0.10;;;22.20;99.90;;;;;;4970116;28;20118;-91
2022/09/10 13:13:50;;;;;;;0.00;0.00;;;22.30;99.90;;;;;;4960339;28;20039;-91
2022/09/10 13:16:25;;;;;;;0.00;0.00;;;22.20;99.90;;;;;;4965841;28;20030;-78
2022/09/10 13:19:17;;;;;;;0.00;0.00;;;22.20;99.90;;;;;;4968379;28;20126;-88
2022/09/10 13:21:43;;;;;;;0.10;0.10;;;22.10;99.90;;;;;;4981574;28;20030;-86
2022/09/10 13:24:34;;;;;;;0.10;0.10;;;22.10;99.90;;;;;;4987985;28;20025;-93
2022/09/10 13:27:17;;;;;;;0.10;0.10;;;20.50;99.90;;;;;;5086034;28;20224;-91
2022/09/10 13:29:49;;;;;;;0.00;0.00;;;21.70;99.90;;;;;;5087353;28;20249;-96
2022/09/10 13:32:47;;;;;;;0.10;0.10;;;21.60;99.90;;;;;;5071216;28;20032;-96
2022/09/10 13:36:06;;;;;;;0.00;0.00;;;21.40;99.90;;;;;;5047844;28;20043;-85
2022/09/10 13:39:07;;;;;;;0.00;0.00;;;21.40;99.90;;;;;;5047154;28;20044;-92